sensor_id;sensor_type;location;lat;lon;timestamp;pressure;altitude;pressure_sealevel;temperature
42119;BMP280;27783;42.782;23.274;2023-06-19T00:01:42;95607.91;;;16.55
42119;BMP280;27783;42.782;23.274;2023-06-19T00:04:09;95600.75;;;16.52
42119;BMP280;27783;42.782;23.274;2023-06-19T00:06:34;95598.75;;;16.72
42119;BMP280;27783;42.782;23.274;2023-06-19T00:09:00;95603.75;;;16.54
42119;BMP280;27783;42.782;23.274;2023-06-19T00:11:27;95596.34;;;16.62
42119;BMP280;27783;42.782;23.274;2023-06-19T00:13:52;95598.50;;;16.51
42119;BMP280;27783;42.782;23.274;2023-06-19T00:16:18;95603.22;;;16.59
42119;BMP280;27783;42.782;23.274;2023-06-19T00:18:45;95597.09;;;16.62
42119;BMP280;27783;42.782;23.274;2023-06-19T00:21:10;95590.53;;;16.51
42119;BMP280;27783;42.782;23.274;2023-06-19T00:23:35;95580.88;;;16.57
42119;BMP280;27783;42.782;23.274;2023-06-19T00:26:01;95587.94;;;16.48
42119;BMP280;27783;42.782;23.274;2023-06-19T00:28:31;95587.63;;;16.46
42119;BMP280;27783;42.782;23.274;2023-06-19T00:30:56;95585.59;;;16.50
42119;BMP280;27783;42.782;23.274;2023-06-19T00:33:22;95591.00;;;16.46
42119;BMP280;27783;42.782;23.274;2023-06-19T00:35:50;95589.09;;;16.47
42119;BMP280;27783;42.782;23.274;2023-06-19T00:38:15;95580.88;;;16.57
42119;BMP280;27783;42.782;23.274;2023-06-19T00:40:41;95583.13;;;16.58
42119;BMP280;27783;42.782;23.274;2023-06-19T00:43:06;95576.72;;;16.56
42119;BMP280;27783;42.782;23.274;2023-06-19T00:45:31;95570.72;;;16.67
42119;BMP280;27783;42.782;23.274;2023-06-19T00:47:58;95577.22;;;16.51
42119;BMP280;27783;42.782;23.274;2023-06-19T00:50:24;95566.88;;;16.84
42119;BMP280;27783;42.782;23.274;2023-06-19T00:52:50;95565.91;;;16.47
42119;BMP280;27783;42.782;23.274;2023-06-19T00:55:16;95566.16;;;16.37
42119;BMP280;27783;42.782;23.274;2023-06-19T00:57:42;95555.75;;;16.58
42119;BMP280;27783;42.782;23.274;2023-06-19T01:00:08;95555.78;;;16.42
42119;BMP280;27783;42.782;23.274;2023-06-19T01:02:35;95552.34;;;16.11
42119;BMP280;27783;42.782;23.274;2023-06-19T01:05:01;95547.78;;;16.11
42119;BMP280;27783;42.782;23.274;2023-06-19T01:07:37;95556.34;;;16.03
42119;BMP280;27783;42.782;23.274;2023-06-19T01:10:07;95550.06;;;16.13
42119;BMP280;27783;42.782;23.274;2023-06-19T01:12:38;95551.56;;;16.29
42119;BMP280;27783;42.782;23.274;2023-06-19T01:15:07;95553.53;;;16.25
42119;BMP280;27783;42.782;23.274;2023-06-19T01:17:35;95553.94;;;16.08
42119;BMP280;27783;42.782;23.274;2023-06-19T01:20:01;95553.44;;;16.13
42119;BMP280;27783;42.782;23.274;2023-06-19T01:22:32;95563.84;;;15.73
42119;BMP280;27783;42.782;23.274;2023-06-19T01:24:57;95562.78;;;15.52
42119;BMP280;27783;42.782;23.274;2023-06-19T01:27:24;95565.63;;;15.61
42119;BMP280;27783;42.782;23.274;2023-06-19T01:29:59;95563.59;;;15.83
42119;BMP280;27783;42.782;23.274;2023-06-19T01:32:41;95565.84;;;15.85
42119;BMP280;27783;42.782;23.274;2023-06-19T01:35:11;95566.59;;;15.85
42119;BMP280;27783;42.782;23.274;2023-06-19T01:37:38;95562.34;;;15.88
42119;BMP280;27783;42.782;23.274;2023-06-19T01:40:08;95573.56;;;15.80
42119;BMP280;27783;42.782;23.274;2023-06-19T01:42:35;95581.00;;;15.69
42119;BMP280;27783;42.782;23.274;2023-06-19T01:45:03;95578.97;;;15.57
42119;BMP280;27783;42.782;23.274;2023-06-19T01:47:28;95585.34;;;15.25
42119;BMP280;27783;42.782;23.274;2023-06-19T01:49:54;95578.09;;;15.45
42119;BMP280;27783;42.782;23.274;2023-06-19T01:52:19;95583.88;;;15.59
42119;BMP280;27783;42.782;23.274;2023-06-19T01:54:44;95581.81;;;15.51
42119;BMP280;27783;42.782;23.274;2023-06-19T01:57:10;95584.34;;;15.54
42119;BMP280;27783;42.782;23.274;2023-06-19T01:59:36;95584.50;;;15.66
42119;BMP280;27783;42.782;23.274;2023-06-19T02:02:01;95580.16;;;15.56
42119;BMP280;27783;42.782;23.274;2023-06-19T02:04:29;95589.91;;;15.44
42119;BMP280;27783;42.782;23.274;2023-06-19T02:06:55;95584.31;;;15.38
42119;BMP280;27783;42.782;23.274;2023-06-19T02:09:21;95581.38;;;15.33
42119;BMP280;27783;42.782;23.274;2023-06-19T02:11:47;95582.72;;;15.41
42119;BMP280;27783;42.782;23.274;2023-06-19T02:14:12;95587.03;;;15.35
42119;BMP280;27783;42.782;23.274;2023-06-19T02:16:39;95582.41;;;15.39
42119;BMP280;27783;42.782;23.274;2023-06-19T02:19:05;95586.72;;;15.33
42119;BMP280;27783;42.782;23.274;2023-06-19T02:21:30;95596.97;;;15.50
42119;BMP280;27783;42.782;23.274;2023-06-19T02:23:56;95588.78;;;15.41
42119;BMP280;27783;42.782;23.274;2023-06-19T02:26:21;95589.75;;;15.32
42119;BMP280;27783;42.782;23.274;2023-06-19T02:28:47;95592.34;;;15.35
42119;BMP280;27783;42.782;23.274;2023-06-19T02:31:12;95593.03;;;15.20
42119;BMP280;27783;42.782;23.274;2023-06-19T02:33:37;95590.31;;;15.23
42119;BMP280;27783;42.782;23.274;2023-06-19T02:36:03;95598.97;;;15.27
42119;BMP280;27783;42.782;23.274;2023-06-19T02:38:29;95611.94;;;15.22
42119;BMP280;27783;42.782;23.274;2023-06-19T02:40:55;95604.28;;;15.27
42119;BMP280;27783;42.782;23.274;2023-06-19T02:43:22;95608.63;;;15.37
42119;BMP280;27783;42.782;23.274;2023-06-19T02:45:48;95610.19;;;15.34
42119;BMP280;27783;42.782;23.274;2023-06-19T02:48:13;95614.34;;;15.17
42119;BMP280;27783;42.782;23.274;2023-06-19T02:50:39;95618.03;;;15.22
42119;BMP280;27783;42.782;23.274;2023-06-19T02:53:04;95614.47;;;14.87
42119;BMP280;27783;42.782;23.274;2023-06-19T02:55:29;95615.34;;;14.81
42119;BMP280;27783;42.782;23.274;2023-06-19T02:57:55;95615.00;;;14.79
42119;BMP280;27783;42.782;23.274;2023-06-19T03:00:20;95613.38;;;14.63
42119;BMP280;27783;42.782;23.274;2023-06-19T03:02:45;95614.13;;;14.41
42119;BMP280;27783;42.782;23.274;2023-06-19T03:05:13;95617.06;;;14.46
42119;BMP280;27783;42.782;23.274;2023-06-19T03:07:41;95613.09;;;14.57
42119;BMP280;27783;42.782;23.274;2023-06-19T03:10:06;95620.69;;;14.55
42119;BMP280;27783;42.782;23.274;2023-06-19T03:12:32;95621.34;;;14.63
42119;BMP280;27783;42.782;23.274;2023-06-19T03:14:57;95623.28;;;14.59
42119;BMP280;27783;42.782;23.274;2023-06-19T03:17:23;95623.66;;;14.61
42119;BMP280;27783;42.782;23.274;2023-06-19T03:19:48;95615.16;;;14.69
42119;BMP280;27783;42.782;23.274;2023-06-19T03:22:13;95614.13;;;14.85
42119;BMP280;27783;42.782;23.274;2023-06-19T03:24:39;95622.44;;;14.87
42119;BMP280;27783;42.782;23.274;2023-06-19T03:27:04;95621.09;;;14.76
42119;BMP280;27783;42.782;23.274;2023-06-19T03:29:30;95632.25;;;14.68
42119;BMP280;27783;42.782;23.274;2023-06-19T03:31:55;95630.56;;;14.77
42119;BMP280;27783;42.782;23.274;2023-06-19T03:34:20;95616.56;;;14.77
42119;BMP280;27783;42.782;23.274;2023-06-19T03:36:46;95626.91;;;14.94
42119;BMP280;27783;42.782;23.274;2023-06-19T03:39:11;95618.63;;;14.88
42119;BMP280;27783;42.782;23.274;2023-06-19T03:41:37;95620.28;;;15.01
42119;BMP280;27783;42.782;23.274;2023-06-19T03:44:02;95624.72;;;15.08
42119;BMP280;27783;42.782;23.274;2023-06-19T03:46:27;95623.00;;;14.98
42119;BMP280;27783;42.782;23.274;2023-06-19T03:54:34;95617.75;;;14.95
42119;BMP280;27783;42.782;23.274;2023-06-19T03:56:59;95618.88;;;14.97
42119;BMP280;27783;42.782;23.274;2023-06-19T03:59:25;95617.44;;;15.12
42119;BMP280;27783;42.782;23.274;2023-06-19T04:01:51;95619.78;;;15.29
42119;BMP280;27783;42.782;23.274;2023-06-19T04:04:16;95627.00;;;15.28
42119;BMP280;27783;42.782;23.274;2023-06-19T04:06:41;95612.63;;;15.45
42119;BMP280;27783;42.782;23.274;2023-06-19T04:09:07;95609.84;;;15.51
42119;BMP280;27783;42.782;23.274;2023-06-19T04:11:32;95615.69;;;15.62
42119;BMP280;27783;42.782;23.274;2023-06-19T04:13:58;95617.41;;;15.72
42119;BMP280;27783;42.782;23.274;2023-06-19T04:16:23;95619.25;;;15.90
42119;BMP280;27783;42.782;23.274;2023-06-19T04:18:49;95618.16;;;16.07
42119;BMP280;27783;42.782;23.274;2023-06-19T04:21:14;95612.88;;;16.22
42119;BMP280;27783;42.782;23.274;2023-06-19T04:23:40;95612.56;;;16.36
42119;BMP280;27783;42.782;23.274;2023-06-19T04:26:05;95607.88;;;16.40
42119;BMP280;27783;42.782;23.274;2023-06-19T04:28:31;95604.00;;;16.44
42119;BMP280;27783;42.782;23.274;2023-06-19T04:30:56;95603.66;;;16.58
42119;BMP280;27783;42.782;23.274;2023-06-19T04:33:27;95600.16;;;16.76
42119;BMP280;27783;42.782;23.274;2023-06-19T04:35:53;95608.31;;;16.85
42119;BMP280;27783;42.782;23.274;2023-06-19T04:38:19;95615.72;;;16.93
42119;BMP280;27783;42.782;23.274;2023-06-19T04:40:51;95603.81;;;16.98
42119;BMP280;27783;42.782;23.274;2023-06-19T04:43:17;95612.03;;;17.03
42119;BMP280;27783;42.782;23.274;2023-06-19T04:45:42;95612.81;;;17.31
42119;BMP280;27783;42.782;23.274;2023-06-19T04:48:07;95609.25;;;17.62
42119;BMP280;27783;42.782;23.274;2023-06-19T04:50:33;95601.91;;;17.53
42119;BMP280;27783;42.782;23.274;2023-06-19T04:52:58;95598.03;;;17.82
42119;BMP280;27783;42.782;23.274;2023-06-19T04:55:24;95599.63;;;17.80
42119;BMP280;27783;42.782;23.274;2023-06-19T04:57:50;95593.91;;;18.30
42119;BMP280;27783;42.782;23.274;2023-06-19T05:00:16;95604.47;;;18.21
42119;BMP280;27783;42.782;23.274;2023-06-19T05:02:44;95603.94;;;18.38
42119;BMP280;27783;42.782;23.274;2023-06-19T05:05:11;95598.47;;;18.53
42119;BMP280;27783;42.782;23.274;2023-06-19T05:07:36;95597.72;;;18.65
42119;BMP280;27783;42.782;23.274;2023-06-19T05:10:02;95600.59;;;18.58
42119;BMP280;27783;42.782;23.274;2023-06-19T05:12:27;95599.25;;;18.66
42119;BMP280;27783;42.782;23.274;2023-06-19T05:14:53;95589.50;;;18.72
42119;BMP280;27783;42.782;23.274;2023-06-19T05:17:18;95609.25;;;18.62
42119;BMP280;27783;42.782;23.274;2023-06-19T05:19:43;95599.63;;;18.77
42119;BMP280;27783;42.782;23.274;2023-06-19T05:22:09;95599.41;;;19.50
42119;BMP280;27783;42.782;23.274;2023-06-19T05:24:34;95602.00;;;19.41
42119;BMP280;27783;42.782;23.274;2023-06-19T05:27:00;95606.94;;;19.30
42119;BMP280;27783;42.782;23.274;2023-06-19T05:29:25;95607.28;;;19.32
42119;BMP280;27783;42.782;23.274;2023-06-19T05:31:51;95608.84;;;19.63
42119;BMP280;27783;42.782;23.274;2023-06-19T05:34:16;95619.69;;;19.59
42119;BMP280;27783;42.782;23.274;2023-06-19T05:36:42;95618.69;;;19.86
42119;BMP280;27783;42.782;23.274;2023-06-19T05:39:10;95618.38;;;19.85
42119;BMP280;27783;42.782;23.274;2023-06-19T05:41:35;95611.56;;;20.22
42119;BMP280;27783;42.782;23.274;2023-06-19T05:44:01;95613.16;;;20.87
42119;BMP280;27783;42.782;23.274;2023-06-19T05:46:26;95613.09;;;20.61
42119;BMP280;27783;42.782;23.274;2023-06-19T05:48:52;95617.25;;;21.09
42119;BMP280;27783;42.782;23.274;2023-06-19T05:51:21;95614.97;;;20.90
42119;BMP280;27783;42.782;23.274;2023-06-19T05:53:46;95614.44;;;21.13
42119;BMP280;27783;42.782;23.274;2023-06-19T05:56:12;95612.34;;;21.34
42119;BMP280;27783;42.782;23.274;2023-06-19T05:58:37;95606.97;;;21.87
42119;BMP280;27783;42.782;23.274;2023-06-19T06:01:03;95607.13;;;21.74
42119;BMP280;27783;42.782;23.274;2023-06-19T06:03:29;95607.88;;;21.75
42119;BMP280;27783;42.782;23.274;2023-06-19T06:05:56;95609.03;;;22.00
42119;BMP280;27783;42.782;23.274;2023-06-19T06:08:30;95611.75;;;21.91
42119;BMP280;27783;42.782;23.274;2023-06-19T06:10:56;95609.91;;;22.15
42119;BMP280;27783;42.782;23.274;2023-06-19T06:13:21;95613.94;;;22.10
42119;BMP280;27783;42.782;23.274;2023-06-19T06:15:47;95613.31;;;22.24
42119;BMP280;27783;42.782;23.274;2023-06-19T06:18:12;95616.34;;;22.57
42119;BMP280;27783;42.782;23.274;2023-06-19T06:20:37;95619.84;;;22.72
42119;BMP280;27783;42.782;23.274;2023-06-19T06:23:03;95609.59;;;22.21
42119;BMP280;27783;42.782;23.274;2023-06-19T06:25:28;95616.22;;;22.75
42119;BMP280;27783;42.782;23.274;2023-06-19T06:27:54;95603.72;;;23.26
42119;BMP280;27783;42.782;23.274;2023-06-19T06:30:19;95615.28;;;22.87
42119;BMP280;27783;42.782;23.274;2023-06-19T06:32:44;95620.16;;;22.74
42119;BMP280;27783;42.782;23.274;2023-06-19T06:35:10;95621.25;;;23.13
42119;BMP280;27783;42.782;23.274;2023-06-19T06:37:36;95617.81;;;22.90
42119;BMP280;27783;42.782;23.274;2023-06-19T06:40:01;95617.69;;;23.53
42119;BMP280;27783;42.782;23.274;2023-06-19T06:42:29;95620.56;;;23.87
42119;BMP280;27783;42.782;23.274;2023-06-19T06:44:54;95623.81;;;23.90
42119;BMP280;27783;42.782;23.274;2023-06-19T06:47:20;95614.38;;;23.72
42119;BMP280;27783;42.782;23.274;2023-06-19T06:49:45;95618.72;;;24.06
42119;BMP280;27783;42.782;23.274;2023-06-19T06:52:10;95611.06;;;23.77
42119;BMP280;27783;42.782;23.274;2023-06-19T06:54:36;95619.75;;;24.09
42119;BMP280;27783;42.782;23.274;2023-06-19T06:57:01;95619.69;;;23.81
42119;BMP280;27783;42.782;23.274;2023-06-19T06:59:30;95617.03;;;23.95
42119;BMP280;27783;42.782;23.274;2023-06-19T07:01:56;95617.97;;;24.06
42119;BMP280;27783;42.782;23.274;2023-06-19T07:04:21;95615.94;;;24.01
42119;BMP280;27783;42.782;23.274;2023-06-19T07:06:47;95608.16;;;24.79
42119;BMP280;27783;42.782;23.274;2023-06-19T07:09:13;95610.78;;;24.59
42119;BMP280;27783;42.782;23.274;2023-06-19T07:11:40;95609.69;;;24.66
42119;BMP280;27783;42.782;23.274;2023-06-19T07:14:06;95601.78;;;24.62
42119;BMP280;27783;42.782;23.274;2023-06-19T07:16:35;95607.56;;;24.56
42119;BMP280;27783;42.782;23.274;2023-06-19T07:19:00;95600.84;;;24.37
42119;BMP280;27783;42.782;23.274;2023-06-19T07:21:27;95611.41;;;25.36
42119;BMP280;27783;42.782;23.274;2023-06-19T07:23:56;95607.75;;;25.39
42119;BMP280;27783;42.782;23.274;2023-06-19T07:26:23;95608.19;;;26.20
42119;BMP280;27783;42.782;23.274;2023-06-19T07:28:51;95607.69;;;25.53
42119;BMP280;27783;42.782;23.274;2023-06-19T07:31:18;95605.34;;;25.21
42119;BMP280;27783;42.782;23.274;2023-06-19T07:33:43;95600.94;;;25.43
42119;BMP280;27783;42.782;23.274;2023-06-19T07:36:09;95607.22;;;25.54
42119;BMP280;27783;42.782;23.274;2023-06-19T07:38:39;95602.66;;;26.09
42119;BMP280;27783;42.782;23.274;2023-06-19T07:41:06;95605.47;;;26.20
42119;BMP280;27783;42.782;23.274;2023-06-19T07:43:32;95601.03;;;25.73
42119;BMP280;27783;42.782;23.274;2023-06-19T07:45:58;95608.97;;;26.01
42119;BMP280;27783;42.782;23.274;2023-06-19T07:48:26;95606.84;;;25.86
42119;BMP280;27783;42.782;23.274;2023-06-19T07:50:53;95603.63;;;26.07
42119;BMP280;27783;42.782;23.274;2023-06-19T07:53:19;95595.59;;;26.42
42119;BMP280;27783;42.782;23.274;2023-06-19T07:55:47;95601.97;;;26.14
42119;BMP280;27783;42.782;23.274;2023-06-19T07:58:13;95601.47;;;26.10
42119;BMP280;27783;42.782;23.274;2023-06-19T08:00:38;95599.81;;;26.78
42119;BMP280;27783;42.782;23.274;2023-06-19T08:03:05;95602.44;;;27.03
42119;BMP280;27783;42.782;23.274;2023-06-19T08:05:30;95602.91;;;26.11
42119;BMP280;27783;42.782;23.274;2023-06-19T08:07:56;95608.88;;;26.40
42119;BMP280;27783;42.782;23.274;2023-06-19T08:10:22;95604.56;;;26.28
42119;BMP280;27783;42.782;23.274;2023-06-19T08:12:47;95599.66;;;26.92
42119;BMP280;27783;42.782;23.274;2023-06-19T08:15:13;95602.97;;;26.77
42119;BMP280;27783;42.782;23.274;2023-06-19T08:17:41;95601.44;;;26.65
42119;BMP280;27783;42.782;23.274;2023-06-19T08:20:07;95598.25;;;26.67
42119;BMP280;27783;42.782;23.274;2023-06-19T08:22:33;95601.56;;;26.87
42119;BMP280;27783;42.782;23.274;2023-06-19T08:24:59;95599.63;;;27.23
42119;BMP280;27783;42.782;23.274;2023-06-19T08:27:24;95598.75;;;27.01
42119;BMP280;27783;42.782;23.274;2023-06-19T08:29:50;95600.34;;;26.88
42119;BMP280;27783;42.782;23.274;2023-06-19T08:32:16;95601.94;;;26.99
42119;BMP280;27783;42.782;23.274;2023-06-19T08:34:41;95592.41;;;27.60
42119;BMP280;27783;42.782;23.274;2023-06-19T08:37:07;95596.13;;;27.68
42119;BMP280;27783;42.782;23.274;2023-06-19T08:39:33;95602.28;;;26.82
42119;BMP280;27783;42.782;23.274;2023-06-19T08:41:59;95601.06;;;27.24
42119;BMP280;27783;42.782;23.274;2023-06-19T08:44:24;95588.00;;;27.68
42119;BMP280;27783;42.782;23.274;2023-06-19T08:46:50;95587.53;;;27.86
42119;BMP280;27783;42.782;23.274;2023-06-19T08:49:15;95583.88;;;28.10
42119;BMP280;27783;42.782;23.274;2023-06-19T08:51:41;95579.22;;;28.16
42119;BMP280;27783;42.782;23.274;2023-06-19T08:54:07;95578.38;;;27.67
42119;BMP280;27783;42.782;23.274;2023-06-19T08:56:34;95573.22;;;27.80
42119;BMP280;27783;42.782;23.274;2023-06-19T08:59:13;95578.38;;;27.62
42119;BMP280;27783;42.782;23.274;2023-06-19T09:01:39;95591.06;;;28.13
42119;BMP280;27783;42.782;23.274;2023-06-19T09:04:12;95584.66;;;28.26
42119;BMP280;27783;42.782;23.274;2023-06-19T09:09:14;95583.19;;;28.15
42119;BMP280;27783;42.782;23.274;2023-06-19T09:11:40;95593.53;;;28.22
42119;BMP280;27783;42.782;23.274;2023-06-19T09:14:09;95578.25;;;28.40
42119;BMP280;27783;42.782;23.274;2023-06-19T09:16:39;95581.97;;;27.43
42119;BMP280;27783;42.782;23.274;2023-06-19T09:19:05;95573.28;;;28.12
42119;BMP280;27783;42.782;23.274;2023-06-19T09:21:31;95583.69;;;28.45
42119;BMP280;27783;42.782;23.274;2023-06-19T09:24:03;95584.09;;;29.19
42119;BMP280;27783;42.782;23.274;2023-06-19T09:26:29;95580.84;;;29.31
42119;BMP280;27783;42.782;23.274;2023-06-19T09:28:54;95575.06;;;28.47
42119;BMP280;27783;42.782;23.274;2023-06-19T09:31:20;95573.09;;;28.47
42119;BMP280;27783;42.782;23.274;2023-06-19T09:33:45;95567.56;;;29.11
42119;BMP280;27783;42.782;23.274;2023-06-19T09:36:11;95565.88;;;29.03
42119;BMP280;27783;42.782;23.274;2023-06-19T09:38:37;95574.69;;;29.30
42119;BMP280;27783;42.782;23.274;2023-06-19T09:41:05;95571.09;;;28.91
42119;BMP280;27783;42.782;23.274;2023-06-19T09:43:38;95566.41;;;28.11
42119;BMP280;27783;42.782;23.274;2023-06-19T09:46:06;95561.72;;;28.81
42119;BMP280;27783;42.782;23.274;2023-06-19T09:48:33;95558.47;;;28.98
42119;BMP280;27783;42.782;23.274;2023-06-19T09:53:36;95567.41;;;28.40
42119;BMP280;27783;42.782;23.274;2023-06-19T09:56:02;95554.69;;;29.83
42119;BMP280;27783;42.782;23.274;2023-06-19T09:58:29;95559.88;;;29.31
42119;BMP280;27783;42.782;23.274;2023-06-19T10:00:56;95544.31;;;29.21
42119;BMP280;27783;42.782;23.274;2023-06-19T10:03:30;95554.69;;;29.33
42119;BMP280;27783;42.782;23.274;2023-06-19T10:06:00;95548.25;;;29.86
42119;BMP280;27783;42.782;23.274;2023-06-19T10:08:39;95544.09;;;29.19
42119;BMP280;27783;42.782;23.274;2023-06-19T10:11:04;95547.31;;;29.12
42119;BMP280;27783;42.782;23.274;2023-06-19T10:13:33;95545.28;;;29.40
42119;BMP280;27783;42.782;23.274;2023-06-19T10:15:59;95540.03;;;29.52
42119;BMP280;27783;42.782;23.274;2023-06-19T10:18:25;95542.47;;;28.84
42119;BMP280;27783;42.782;23.274;2023-06-19T10:20:53;95538.53;;;29.51
42119;BMP280;27783;42.782;23.274;2023-06-19T10:23:24;95544.38;;;29.05
42119;BMP280;27783;42.782;23.274;2023-06-19T10:28:18;95524.66;;;29.99
42119;BMP280;27783;42.782;23.274;2023-06-19T10:30:45;95529.66;;;29.51
42119;BMP280;27783;42.782;23.274;2023-06-19T10:33:10;95528.59;;;30.04
42119;BMP280;27783;42.782;23.274;2023-06-19T10:35:40;95520.84;;;30.47
42119;BMP280;27783;42.782;23.274;2023-06-19T10:38:07;95528.13;;;30.00
42119;BMP280;27783;42.782;23.274;2023-06-19T10:40:35;95518.19;;;29.68
42119;BMP280;27783;42.782;23.274;2023-06-19T10:43:01;95522.19;;;29.57
42119;BMP280;27783;42.782;23.274;2023-06-19T10:45:26;95515.84;;;29.49
42119;BMP280;27783;42.782;23.274;2023-06-19T10:47:54;95516.47;;;30.67
42119;BMP280;27783;42.782;23.274;2023-06-19T10:50:20;95519.13;;;29.37
42119;BMP280;27783;42.782;23.274;2023-06-19T10:52:46;95517.72;;;30.90
42119;BMP280;27783;42.782;23.274;2023-06-19T10:55:13;95519.72;;;30.89
42119;BMP280;27783;42.782;23.274;2023-06-19T10:57:40;95506.78;;;29.75
42119;BMP280;27783;42.782;23.274;2023-06-19T11:00:06;95506.06;;;29.25
42119;BMP280;27783;42.782;23.274;2023-06-19T11:02:40;95507.34;;;29.13
42119;BMP280;27783;42.782;23.274;2023-06-19T11:05:09;95510.19;;;27.95
42119;BMP280;27783;42.782;23.274;2023-06-19T11:07:36;95509.47;;;28.38
42119;BMP280;27783;42.782;23.274;2023-06-19T11:10:02;95496.66;;;29.76
42119;BMP280;27783;42.782;23.274;2023-06-19T11:12:28;95497.25;;;28.97
42119;BMP280;27783;42.782;23.274;2023-06-19T11:14:54;95498.19;;;29.27
42119;BMP280;27783;42.782;23.274;2023-06-19T11:17:20;95489.53;;;29.17
42119;BMP280;27783;42.782;23.274;2023-06-19T11:19:49;95502.41;;;29.61
42119;BMP280;27783;42.782;23.274;2023-06-19T11:22:15;95506.75;;;28.32
42119;BMP280;27783;42.782;23.274;2023-06-19T11:24:46;95502.00;;;28.81
42119;BMP280;27783;42.782;23.274;2023-06-19T11:27:21;95501.81;;;29.34
42119;BMP280;27783;42.782;23.274;2023-06-19T11:29:56;95500.72;;;29.59
42119;BMP280;27783;42.782;23.274;2023-06-19T11:32:24;95502.97;;;30.23
42119;BMP280;27783;42.782;23.274;2023-06-19T11:34:51;95487.56;;;30.88
42119;BMP280;27783;42.782;23.274;2023-06-19T11:37:18;95484.94;;;31.18
42119;BMP280;27783;42.782;23.274;2023-06-19T11:39:47;95488.38;;;29.02
42119;BMP280;27783;42.782;23.274;2023-06-19T11:42:13;95495.53;;;28.94
42119;BMP280;27783;42.782;23.274;2023-06-19T11:45:02;95488.59;;;29.10
42119;BMP280;27783;42.782;23.274;2023-06-19T11:47:32;95495.31;;;28.93
42119;BMP280;27783;42.782;23.274;2023-06-19T11:49:58;95490.97;;;29.79
42119;BMP280;27783;42.782;23.274;2023-06-19T11:52:23;95496.16;;;29.32
42119;BMP280;27783;42.782;23.274;2023-06-19T11:54:49;95485.94;;;29.49
42119;BMP280;27783;42.782;23.274;2023-06-19T11:57:14;95485.78;;;29.36
42119;BMP280;27783;42.782;23.274;2023-06-19T11:59:40;95489.59;;;29.57
42119;BMP280;27783;42.782;23.274;2023-06-19T12:02:07;95480.66;;;30.01
42119;BMP280;27783;42.782;23.274;2023-06-19T12:04:33;95484.53;;;30.11
42119;BMP280;27783;42.782;23.274;2023-06-19T12:06:59;95479.84;;;29.77
42119;BMP280;27783;42.782;23.274;2023-06-19T12:09:25;95478.06;;;30.19
42119;BMP280;27783;42.782;23.274;2023-06-19T12:11:50;95475.09;;;30.17
42119;BMP280;27783;42.782;23.274;2023-06-19T12:14:16;95476.59;;;29.84
42119;BMP280;27783;42.782;23.274;2023-06-19T12:16:41;95473.84;;;30.18
42119;BMP280;27783;42.782;23.274;2023-06-19T12:19:06;95490.69;;;28.56
42119;BMP280;27783;42.782;23.274;2023-06-19T12:21:32;95481.56;;;28.69
42119;BMP280;27783;42.782;23.274;2023-06-19T12:23:57;95475.72;;;28.17
42119;BMP280;27783;42.782;23.274;2023-06-19T12:26:22;95488.72;;;28.61
42119;BMP280;27783;42.782;23.274;2023-06-19T12:28:50;95480.81;;;28.63
42119;BMP280;27783;42.782;23.274;2023-06-19T12:31:17;95486.31;;;27.94
42119;BMP280;27783;42.782;23.274;2023-06-19T12:33:42;95487.78;;;27.84
42119;BMP280;27783;42.782;23.274;2023-06-19T12:36:13;95480.66;;;28.24
42119;BMP280;27783;42.782;23.274;2023-06-19T12:38:40;95475.94;;;28.35
42119;BMP280;27783;42.782;23.274;2023-06-19T12:41:05;95477.44;;;28.20
42119;BMP280;27783;42.782;23.274;2023-06-19T12:43:31;95476.44;;;28.02
42119;BMP280;27783;42.782;23.274;2023-06-19T12:45:59;95474.47;;;29.22
42119;BMP280;27783;42.782;23.274;2023-06-19T12:48:26;95478.59;;;28.67
42119;BMP280;27783;42.782;23.274;2023-06-19T12:50:51;95480.94;;;29.08
42119;BMP280;27783;42.782;23.274;2023-06-19T12:53:17;95480.84;;;28.69
42119;BMP280;27783;42.782;23.274;2023-06-19T12:55:42;95475.47;;;27.94
42119;BMP280;27783;42.782;23.274;2023-06-19T12:58:08;95472.75;;;28.26
42119;BMP280;27783;42.782;23.274;2023-06-19T13:00:34;95472.09;;;29.02
42119;BMP280;27783;42.782;23.274;2023-06-19T13:02:59;95467.66;;;28.99
42119;BMP280;27783;42.782;23.274;2023-06-19T13:05:24;95468.25;;;28.55
42119;BMP280;27783;42.782;23.274;2023-06-19T13:07:50;95457.88;;;29.30
42119;BMP280;27783;42.782;23.274;2023-06-19T13:10:15;95462.19;;;29.55
42119;BMP280;27783;42.782;23.274;2023-06-19T13:12:41;95471.69;;;28.77
42119;BMP280;27783;42.782;23.274;2023-06-19T13:15:07;95461.03;;;28.90
42119;BMP280;27783;42.782;23.274;2023-06-19T13:17:32;95450.72;;;29.72
42119;BMP280;27783;42.782;23.274;2023-06-19T13:19:57;95458.19;;;29.66
42119;BMP280;27783;42.782;23.274;2023-06-19T13:22:24;95456.59;;;29.81
42119;BMP280;27783;42.782;23.274;2023-06-19T13:24:50;95448.09;;;29.17
42119;BMP280;27783;42.782;23.274;2023-06-19T13:27:16;95457.66;;;28.57
42119;BMP280;27783;42.782;23.274;2023-06-19T13:29:42;95448.53;;;29.21
42119;BMP280;27783;42.782;23.274;2023-06-19T13:32:07;95456.78;;;28.99
42119;BMP280;27783;42.782;23.274;2023-06-19T13:34:33;95452.28;;;29.23
42119;BMP280;27783;42.782;23.274;2023-06-19T13:36:58;95449.34;;;30.52
42119;BMP280;27783;42.782;23.274;2023-06-19T13:39:23;95458.84;;;29.83
42119;BMP280;27783;42.782;23.274;2023-06-19T13:41:49;95441.66;;;29.98
42119;BMP280;27783;42.782;23.274;2023-06-19T13:44:14;95447.75;;;29.70
42119;BMP280;27783;42.782;23.274;2023-06-19T13:46:40;95441.59;;;28.64
42119;BMP280;27783;42.782;23.274;2023-06-19T13:49:05;95444.41;;;29.54
42119;BMP280;27783;42.782;23.274;2023-06-19T13:51:30;95441.66;;;29.98
42119;BMP280;27783;42.782;23.274;2023-06-19T13:53:56;95444.22;;;28.96
42119;BMP280;27783;42.782;23.274;2023-06-19T13:56:23;95443.22;;;29.83
42119;BMP280;27783;42.782;23.274;2023-06-19T13:58:49;95449.69;;;29.41
42119;BMP280;27783;42.782;23.274;2023-06-19T14:01:14;95435.16;;;30.35
42119;BMP280;27783;42.782;23.274;2023-06-19T14:03:42;95444.56;;;28.77
42119;BMP280;27783;42.782;23.274;2023-06-19T14:06:08;95439.78;;;28.99